Wednesday, June 20, 2018, 7:45 AM GMT
Back to Local

CWNC, Cobourg, Ont.

Location: , , Canada Lat: 43.95
Local Time: 7:45 AM GMT ( 7:45 GMT) Lon: -78.167
Time Zone: GMT Elev: 255 ft

Show me the last for .
Show Coded

Time T Td Feel RH Dir Speed Gust Alt SLP Vis Weather Sky Remarks
2018-06-20 07:00 53 49 - 84 290° 1 - - 29.89 0 None
2018-06-20 06:00 57 49 - 75 350° 5 - - 29.90 0 None
2018-06-20 05:00 56 50 - 79 340° 2 - - 29.92 0 None
2018-06-20 04:00 56 49 - 79 340° 2 - - 29.93 0 None
2018-06-20 03:00 59 48 - 67 330° 2 - - 29.93 0 None
2018-06-20 02:00 63 45 - 52 300° 3 - - 29.94 0 None
2018-06-20 01:00 60 46 - 59 280° 6 - - 29.93 0 None
2018-06-20 00:00 60 47 - 62 280° 5 - - 29.94 0 None
2018-06-19 23:00 61 51 - 69 280° 6 - - 29.94 0 None
2018-06-19 22:00 60 51 - 73 280° 5 - - 29.94 0 None
2018-06-19 21:00 59 50 - 72 270° 5 - - 29.96 0 None
2018-06-19 20:00 57 50 - 76 270° 6 - - 29.98 0 None
2018-06-19 19:00 59 50 - 72 270° 9 - - 29.99 0 None
2018-06-19 18:00 58 50 - 75 250° 6 - - 29.99 0 None
2018-06-19 17:00 57 48 - 72 230° 6 - - 29.99 0 None
2018-06-19 16:00 55 46 - 72 220° 8 - - 30.00 0 None
2018-06-19 15:00 67 43 - 41 60° 5 - - 30.00 0 None
2018-06-19 14:00 65 44 - 46 20° 6 - - 30.01 0 None
2018-06-19 13:00 64 45 - 51 30° 8 - - 30.00 0 None
2018-06-19 12:00 63 50 - 62 30° 7 - - 29.99 0 None
2018-06-19 11:00 63 54 - 71 30° 6 - - 29.97 0 None
2018-06-19 10:00 62 55 - 76 40° 3 - - 29.93 0 None
2018-06-19 09:00 63 55 - 74 20° 8 - - 29.90 0 None
2018-06-19 08:00 64 55 - 73 20° 6 - - 29.88 0 None

Support USWX by starting your Amazon purchase here.